GUCY/CKY METAR and TAF weather

Enter ICAO airport designator
Station Type Date Time Source
GUCY METAR 2018/04/26 14:00 UTC NOAA

GUCY 261400Z 26010KT CAVOK 33/16 Q1012 NOSIG


Station Type Date Time Source
GUCY Decoded METAR 2018/04/26 14:00 UTC NOAA

Conakry / Gbessia, Guinea (GUCY) 09-34N 013-37W 26M
Apr 26, 2018 - 10:00 AM EDT / 2018.04.26 1400 UTC
Wind: from the W (260 degrees) at 12 MPH (10 KT):0
Visibility: greater than 7 mile(s):0
Temperature: 91 F (33 C)
Dew Point: 60 F (16 C)
Relative Humidity: 36%
Pressure (altimeter): 29.88 in. Hg (1012 hPa)
ob: GUCY 261400Z 26010KT CAVOK 33/16 Q1012 NOSIG
cycle: 14

Station Type Date Time Source
GUCY TAF 2018/04/26 12:56 UTC NOAA

TAF GUCY 261100Z 2612/2718 28006KT 9999 FEW016
TEMPO 2618/2623 22008KT SCT110


Example: see airport list